Hovedside
METAR-TAF:

METAR-TAF

Lufthavner :

Kotoka internasjonale lufthavn

Accra, Ghana

breddegrad: 05-36N, lengdegrad: 000-10W, høyde over havet: 68 m

Gjeldene værobservasjon

Denne rapporten ble laget for 1 time og 46 minutter siden, klokken 00:00 UTC
Vind 8 kt fra Sørvest
Temperatur 24°C
Luftfuktighet 89%
Trykk 1014 hPa
Sikt 10 km eller mer
ingen skyer under 1500 m og ingen bygeskyer

METAR: DGAA 210000Z 23008KT CAVOK 24/22 Q1014 NOSIG

Tid: 01:46 (01:46 UTC)

Varsel

Denne rapporten ble laget for 2 timer og 46 minutter siden, klokken 23:00 UTC
Varsel gyldig fra 21. klokken 00 UTC til 22. klokken 06 UTC
Vind 10 kt fra Vest
Sikt 10 km eller mer
ingen skyer under 1500 m og ingen bygeskyer
Blir
fra 21. klokken 06 UTC til 21. klokken 08 UTC
Brutte skyer i en høyde av 1400 ft
Blir
fra 21. klokken 12 UTC til 21. klokken 14 UTC
Vind 15 kt fra Sør
Spredte skyer i en høyde av 1800 ft

TAF: DGAA 202300Z 2100/2206 26010KT CAVOK BECMG 2106/2108 BKN014 BECMG 2112/2114 19015KT SCT018

Værobservasjoner og værvarsel for over 4000 flyplasser (METAR- og TAF-rapporter).

Tilgjengelige stasjoner er representert av de røde og gule prikkene på kartet.

Hold musepekeren over prikken for å se navnet på stasjonen.

Klikk så for å se værobservasjoner og -varsler.

For å forandre kartet kan du klikke på den grønne knappen med svart kryss for å zoome inn, på den grønne knappen med strek for å zoome ut, eller på de grønne pilene for å se tilstøtende kart.


METAR-TAF: